createdAt,value
2022-08-18T00:01:45.763Z,7.20
2022-08-18T00:04:48.481Z,7.95
2022-08-18T00:07:31.066Z,8.05
2022-08-18T00:10:18.777Z,8.03
2022-08-18T00:13:06.681Z,7.20
2022-08-18T00:15:54.053Z,7.72
2022-08-18T00:18:41.195Z,7.85
2022-08-18T00:21:28.674Z,8.03
2022-08-18T00:24:16.199Z,7.85
2022-08-18T00:27:03.340Z,8.65
2022-08-18T00:29:51.336Z,8.05
2022-08-18T00:32:42.017Z,8.23
2022-08-18T00:35:32.726Z,8.68
2022-08-18T00:38:24.800Z,8.35
2022-08-18T00:41:09.244Z,8.65
2022-08-18T00:43:58.387Z,8.45
2022-08-18T00:46:45.844Z,8.95
2022-08-18T00:49:33.484Z,9.08
2022-08-18T00:52:22.846Z,8.68
2022-08-18T00:55:10.974Z,8.55
2022-08-18T00:58:01.773Z,8.45
2022-08-18T01:00:52.274Z,8.15
2022-08-18T01:03:42.061Z,8.60
2022-08-18T01:06:44.890Z,8.65
2022-08-18T01:09:32.420Z,8.70
2022-08-18T01:12:45.239Z,8.83
2022-08-18T01:15:28.443Z,9.68
2022-08-18T01:18:21.537Z,9.00
2022-08-18T01:21:32.840Z,9.18
2022-08-18T01:24:49.989Z,9.88
2022-08-18T01:27:37.680Z,10.23
2022-08-18T01:30:28.200Z,9.85
2022-08-18T01:33:16.913Z,10.18
2022-08-18T01:36:19.616Z,9.03
2022-08-18T01:39:09.572Z,9.65
2022-08-18T01:41:57.136Z,9.30
2022-08-18T01:44:47.695Z,9.83
2022-08-18T01:47:47.496Z,10.40
2022-08-18T01:50:25.168Z,9.63
2022-08-18T01:53:12.847Z,10.25
2022-08-18T01:56:00.475Z,10.18
2022-08-18T01:58:48.877Z,9.90
2022-08-18T02:01:38.948Z,10.98
2022-08-18T02:04:36.520Z,10.43
2022-08-18T02:07:20.273Z,10.75
2022-08-18T02:10:12.169Z,10.93
2022-08-18T02:12:59.831Z,11.18
2022-08-18T02:15:47.723Z,11.78
2022-08-18T02:18:47.464Z,11.48
2022-08-18T02:21:26.104Z,11.95
2022-08-18T02:24:13.350Z,11.80
2022-08-18T02:27:01.263Z,11.18
2022-08-18T02:29:48.647Z,10.90
2022-08-18T02:32:35.926Z,12.10
2022-08-18T02:35:23.489Z,11.80
2022-08-18T02:38:11.319Z,12.58
2022-08-18T02:41:02.782Z,11.90
2022-08-18T02:43:50.687Z,11.90
2022-08-18T02:46:38.714Z,13.72
2022-08-18T02:49:26.303Z,12.78
2022-08-18T02:52:13.843Z,13.72
2022-08-18T02:55:04.592Z,12.82
2022-08-18T02:57:53.046Z,14.03
2022-08-18T03:00:40.924Z,13.13
2022-08-18T03:03:28.718Z,12.53
2022-08-18T03:06:16.721Z,12.88
2022-08-18T03:09:06.232Z,12.53
2022-08-18T03:11:53.585Z,12.30
2022-08-18T03:14:41.015Z,12.37
2022-08-18T03:17:28.872Z,12.68
2022-08-18T03:20:16.541Z,11.53
2022-08-18T03:23:10.125Z,12.53
2022-08-18T03:25:55.321Z,12.13
2022-08-18T03:28:44.483Z,12.05
2022-08-18T03:31:32.417Z,12.68
2022-08-18T03:34:20.900Z,12.10
2022-08-18T03:37:08.853Z,13.25
2022-08-18T03:39:56.504Z,13.45
2022-08-18T03:42:44.122Z,12.98
2022-08-18T03:45:31.841Z,13.48
2022-08-18T03:48:19.202Z,13.53
2022-08-18T03:51:09.268Z,12.70
2022-08-18T03:54:01.281Z,14.07
2022-08-18T03:56:50.104Z,13.68
2022-08-18T03:59:40.065Z,13.35
2022-08-18T04:02:28.368Z,13.20
2022-08-18T04:05:15.876Z,15.03
2022-08-18T04:08:05.391Z,14.45
2022-08-18T04:10:52.637Z,12.95
2022-08-18T04:13:40.244Z,13.72
2022-08-18T04:16:29.577Z,13.60
2022-08-18T04:19:23.103Z,14.20
2022-08-18T04:22:07.406Z,14.63
2022-08-18T04:24:55.661Z,14.73
2022-08-18T04:27:44.608Z,14.15
2022-08-18T04:30:32.165Z,15.13
2022-08-18T04:33:19.695Z,14.35
2022-08-18T04:36:20.732Z,14.13
2022-08-18T04:39:07.026Z,13.75
2022-08-18T04:41:54.680Z,14.13
2022-08-18T04:44:42.917Z,13.40
2022-08-18T04:47:30.008Z,13.20
2022-08-18T04:50:17.667Z,14.03
2022-08-18T04:53:23.751Z,13.43
2022-08-18T04:56:12.813Z,13.60
2022-08-18T04:59:06.450Z,14.00
2022-08-18T05:01:54.044Z,13.68
2022-08-18T05:04:43.020Z,14.75
2022-08-18T05:07:30.575Z,14.28
2022-08-18T05:10:18.333Z,14.53
2022-08-18T05:13:06.430Z,14.30
2022-08-18T05:16:10.134Z,13.80
2022-08-18T05:18:46.273Z,13.43
2022-08-18T05:21:33.791Z,13.68
2022-08-18T05:24:24.782Z,13.95
2022-08-18T05:27:12.976Z,13.83
2022-08-18T05:30:00.855Z,13.65
2022-08-18T05:32:50.497Z,13.20
2022-08-18T05:35:52.216Z,12.58
2022-08-18T05:38:59.581Z,13.03
2022-08-18T05:41:55.449Z,13.05
2022-08-18T05:44:45.621Z,13.53
2022-08-18T05:47:33.893Z,13.55
2022-08-18T05:50:21.776Z,13.28
2022-08-18T05:53:14.600Z,12.53
2022-08-18T05:56:23.632Z,12.23
2022-08-18T05:59:14.342Z,10.78
2022-08-18T06:02:32.256Z,12.10
2022-08-18T06:05:25.708Z,11.85
2022-08-18T06:08:15.793Z,11.80
2022-08-18T06:11:03.074Z,11.65
2022-08-18T06:13:59.180Z,12.37
2022-08-18T06:17:02.077Z,12.63
2022-08-18T06:20:12.141Z,12.78
2022-08-18T06:23:18.803Z,13.05
2022-08-18T06:26:21.356Z,13.10
2022-08-18T06:29:11.532Z,11.90
2022-08-18T06:32:26.247Z,11.97
2022-08-18T06:35:19.636Z,11.53
2022-08-18T06:38:40.643Z,11.88
2022-08-18T06:41:43.459Z,12.15
2022-08-18T06:44:42.515Z,11.85
2022-08-18T06:47:51.242Z,11.63
2022-08-18T06:50:43.624Z,11.65
2022-08-18T06:54:02.687Z,12.20
2022-08-18T06:56:52.468Z,12.15
2022-08-18T06:59:39.621Z,12.50
2022-08-18T07:02:30.011Z,12.10
2022-08-18T07:05:22.156Z,11.48
2022-08-18T07:08:18.804Z,12.47
2022-08-18T07:11:23.726Z,13.00
2022-08-18T07:14:17.343Z,13.13
2022-08-18T07:17:13.733Z,11.88
2022-08-18T07:20:10.312Z,12.75
2022-08-18T07:23:08.062Z,12.55
2022-08-18T07:26:03.521Z,12.23
2022-08-18T07:28:53.330Z,11.35
2022-08-18T07:31:48.144Z,11.60
2022-08-18T07:34:38.368Z,12.13
2022-08-18T07:37:29.210Z,11.25
2022-08-18T07:40:31.475Z,12.40
2022-08-18T07:43:25.479Z,11.65
2022-08-18T07:46:16.297Z,13.00
2022-08-18T07:49:06.368Z,12.13
2022-08-18T07:52:36.194Z,11.83
2022-08-18T07:55:10.131Z,12.80
2022-08-18T07:58:15.073Z,11.00
2022-08-18T08:01:08.395Z,11.22
2022-08-18T08:04:25.655Z,11.57
2022-08-18T08:07:28.731Z,10.88
2022-08-18T08:10:36.199Z,9.93
2022-08-18T08:13:58.355Z,10.00
2022-08-18T08:16:40.886Z,10.43
2022-08-18T08:19:59.391Z,10.58
2022-08-18T08:22:40.979Z,11.22
2022-08-18T08:25:47.710Z,11.22
2022-08-18T08:28:29.313Z,10.55
2022-08-18T08:31:39.757Z,11.50
2022-08-18T08:34:22.105Z,10.95
2022-08-18T08:37:12.777Z,11.90
2022-08-18T08:40:03.182Z,13.80
2022-08-18T08:43:02.708Z,14.10
2022-08-18T08:46:02.466Z,14.70
2022-08-18T08:48:58.914Z,14.53
2022-08-18T08:51:49.628Z,14.18
2022-08-18T08:54:40.151Z,14.47
2022-08-18T08:57:36.224Z,14.70
2022-08-18T09:00:24.020Z,14.43
2022-08-18T09:03:32.242Z,15.28
2022-08-18T09:06:27.950Z,14.78
2022-08-18T09:09:24.429Z,14.97
2022-08-18T09:12:37.387Z,15.00
2022-08-18T09:15:30.112Z,14.85
2022-08-18T09:18:35.854Z,14.95
2022-08-18T09:21:32.413Z,16.60
2022-08-18T09:24:25.683Z,16.97
2022-08-18T09:27:16.229Z,14.90
2022-08-18T09:30:07.200Z,15.53
2022-08-18T09:33:19.611Z,14.73
2022-08-18T09:36:13.000Z,15.55
2022-08-18T09:39:29.031Z,16.50
2022-08-18T09:42:31.479Z,16.37
2022-08-18T09:45:34.511Z,15.70
2022-08-18T09:48:30.854Z,15.28
2022-08-18T09:54:13.268Z,15.53
2022-08-18T09:57:07.175Z,15.18
2022-08-18T09:59:57.605Z,15.90
2022-08-18T10:02:51.317Z,16.15
2022-08-18T10:05:40.738Z,15.80
2022-08-18T10:08:44.333Z,15.63
2022-08-18T10:11:41.339Z,16.05
2022-08-18T10:14:37.720Z,15.70
2022-08-18T10:17:50.058Z,15.95
2022-08-18T10:20:46.034Z,16.32
2022-08-18T10:24:14.631Z,15.75
2022-08-18T10:26:54.240Z,16.25
2022-08-18T10:30:03.899Z,16.17
2022-08-18T10:32:52.201Z,16.60
2022-08-18T10:35:43.056Z,17.37
2022-08-18T10:38:45.876Z,16.02
2022-08-18T10:41:32.639Z,16.02
2022-08-18T10:47:24.913Z,17.02
2022-08-18T10:50:20.773Z,15.78
2022-08-18T10:53:39.777Z,16.23
2022-08-18T10:56:43.826Z,17.12
2022-08-18T10:59:47.723Z,17.85
2022-08-18T11:03:21.228Z,18.92
2022-08-18T11:05:43.913Z,18.60
2022-08-18T11:08:36.895Z,19.23
2022-08-18T11:11:39.167Z,19.98
2022-08-18T11:14:50.052Z,19.15
2022-08-18T11:17:49.900Z,19.70
2022-08-18T11:20:38.820Z,18.27
2022-08-18T11:23:27.501Z,19.00
2022-08-18T11:26:19.452Z,17.70
2022-08-18T11:29:32.551Z,18.48
2022-08-18T11:32:32.443Z,17.40
2022-08-18T11:35:25.936Z,17.57
2022-08-18T11:38:20.729Z,17.15
2022-08-18T11:41:24.382Z,16.67
2022-08-18T11:44:14.842Z,19.45
2022-08-18T11:47:16.941Z,17.00
2022-08-18T11:50:13.941Z,14.43
2022-08-18T11:53:19.349Z,17.40
2022-08-18T11:56:20.135Z,16.07
2022-08-18T11:59:11.785Z,17.05
2022-08-18T12:01:59.597Z,15.35
2022-08-18T12:07:57.243Z,14.05
2022-08-18T12:10:32.513Z,12.75
2022-08-18T12:13:26.844Z,12.07
2022-08-18T12:16:17.409Z,12.90
2022-08-18T12:19:07.670Z,11.50
2022-08-18T12:21:59.073Z,11.97
2022-08-18T12:24:48.261Z,11.75
2022-08-18T12:27:35.854Z,11.55
2022-08-18T12:30:23.649Z,11.83
2022-08-18T12:33:12.483Z,11.40
2022-08-18T12:36:00.451Z,10.38
2022-08-18T12:38:52.234Z,10.38
2022-08-18T12:41:36.679Z,10.78
2022-08-18T12:44:27.330Z,11.38
2022-08-18T12:47:15.881Z,10.48
2022-08-18T12:50:03.436Z,11.65
2022-08-18T12:52:51.660Z,10.10
2022-08-18T12:55:44.092Z,10.23
2022-08-18T12:58:31.208Z,10.90
2022-08-18T13:01:23.198Z,11.15
2022-08-18T13:04:13.167Z,10.58
2022-08-18T13:07:05.914Z,10.23
2022-08-18T13:09:54.399Z,10.45
2022-08-18T13:12:41.828Z,10.90
2022-08-18T13:15:30.229Z,10.00
2022-08-18T13:18:17.746Z,8.73
2022-08-18T13:21:07.346Z,9.00
2022-08-18T13:23:55.115Z,9.05
2022-08-18T13:26:45.754Z,9.65
2022-08-18T13:29:33.469Z,7.65
2022-08-18T13:32:21.179Z,8.28
2022-08-18T13:35:13.210Z,7.75
2022-08-18T13:37:59.115Z,8.35
2022-08-18T13:40:48.458Z,8.23
2022-08-18T13:43:39.168Z,7.72
2022-08-18T13:46:31.053Z,7.70
2022-08-18T13:49:15.953Z,8.10
2022-08-18T13:52:12.180Z,7.90
2022-08-18T13:54:55.346Z,7.85
2022-08-18T13:57:53.437Z,7.87
2022-08-18T14:00:37.884Z,8.20
2022-08-18T14:03:42.304Z,7.58
2022-08-18T14:06:13.900Z,8.38
2022-08-18T14:09:01.627Z,7.78
2022-08-18T14:11:51.165Z,7.90
2022-08-18T14:14:38.589Z,7.70
2022-08-18T14:17:26.652Z,8.18
2022-08-18T14:20:32.246Z,7.37
2022-08-18T14:23:39.311Z,8.23
2022-08-18T14:29:46.667Z,7.08
2022-08-18T14:32:29.046Z,7.97
2022-08-18T14:36:04.363Z,6.92
2022-08-18T14:38:06.890Z,7.22
2022-08-18T14:40:57.040Z,7.47
2022-08-18T14:44:04.539Z,7.72
2022-08-18T14:46:34.726Z,7.70
2022-08-18T14:49:28.316Z,7.80
2022-08-18T14:52:13.959Z,7.47
2022-08-18T14:55:01.660Z,7.30
2022-08-18T14:57:50.335Z,7.50
2022-08-18T15:00:53.732Z,7.42
2022-08-18T15:03:31.436Z,7.37
2022-08-18T15:06:22.937Z,7.20
2022-08-18T15:09:07.999Z,8.00
2022-08-18T15:11:58.383Z,7.97
2022-08-18T15:14:47.611Z,7.78
2022-08-18T15:17:38.161Z,7.58
2022-08-18T15:20:29.509Z,7.33
2022-08-18T15:23:34.773Z,8.05
2022-08-18T15:26:25.843Z,7.58
2022-08-18T15:29:15.040Z,7.33
2022-08-18T15:32:06.154Z,7.20
2022-08-18T15:34:51.938Z,7.15
2022-08-18T15:37:39.484Z,7.97
2022-08-18T15:40:35.603Z,7.90
2022-08-18T15:43:19.389Z,9.35
2022-08-18T15:46:07.578Z,9.30
2022-08-18T15:48:56.537Z,8.93
2022-08-18T15:51:46.344Z,10.45
2022-08-18T15:54:33.874Z,9.93
2022-08-18T15:57:38.788Z,9.98
2022-08-18T16:00:12.374Z,10.13
2022-08-18T16:03:08.972Z,9.90
2022-08-18T16:05:56.491Z,10.30
2022-08-18T16:08:44.291Z,9.45
2022-08-18T16:11:31.846Z,10.80
2022-08-18T16:14:19.432Z,10.38
2022-08-18T16:17:09.490Z,10.50
2022-08-18T16:19:56.158Z,10.60
2022-08-18T16:22:43.627Z,10.95
2022-08-18T16:25:31.304Z,12.68
2022-08-18T16:28:18.973Z,11.28
2022-08-18T16:31:07.576Z,10.63
2022-08-18T16:33:57.208Z,11.18
2022-08-18T16:36:44.424Z,11.60
2022-08-18T16:39:33.568Z,11.73
2022-08-18T16:42:21.346Z,12.43
2022-08-18T16:45:09.636Z,12.35
2022-08-18T16:47:58.479Z,12.70
2022-08-18T16:50:46.268Z,12.90
2022-08-18T16:53:39.766Z,13.98
2022-08-18T16:56:25.926Z,16.05
2022-08-18T17:02:35.182Z,14.03
2022-08-18T17:05:22.471Z,14.68
2022-08-18T17:08:10.134Z,15.20
2022-08-18T17:10:57.853Z,16.05
2022-08-18T17:13:46.791Z,16.35
2022-08-18T17:16:35.503Z,17.42
2022-08-18T17:19:33.155Z,16.32
2022-08-18T17:22:20.334Z,16.73
2022-08-18T17:25:10.943Z,17.92
2022-08-18T17:28:00.967Z,17.82
2022-08-18T17:30:51.788Z,16.57
2022-08-18T17:33:44.167Z,16.62
2022-08-18T17:36:41.122Z,16.15
2022-08-18T17:39:35.828Z,15.68
2022-08-18T17:42:26.093Z,14.78
2022-08-18T17:45:21.669Z,14.43
2022-08-18T17:48:10.566Z,13.68
2022-08-18T17:51:22.277Z,13.78
2022-08-18T17:54:35.493Z,14.28
2022-08-18T17:57:34.064Z,14.13
2022-08-18T18:00:21.744Z,13.28
2022-08-18T18:03:13.069Z,13.30
2022-08-18T18:06:01.821Z,12.75
2022-08-18T18:08:58.168Z,13.00
2022-08-18T18:11:48.923Z,13.25
2022-08-18T18:14:40.325Z,12.40
2022-08-18T18:17:34.795Z,11.90
2022-08-18T18:20:39.218Z,11.15
2022-08-18T18:23:32.264Z,11.93
2022-08-18T18:26:28.801Z,11.83
2022-08-18T18:29:22.006Z,12.03
2022-08-18T18:32:20.934Z,12.85
2022-08-18T18:35:16.965Z,15.83
2022-08-18T18:38:07.558Z,16.67
2022-08-18T18:41:03.675Z,18.12
2022-08-18T18:43:52.303Z,19.90
2022-08-18T18:46:45.538Z,21.57
2022-08-18T18:49:35.809Z,23.90
2022-08-18T18:52:41.345Z,22.40
2022-08-18T18:55:32.196Z,24.27
2022-08-18T18:58:27.434Z,23.25
2022-08-18T19:01:20.918Z,24.60
2022-08-18T19:04:23.357Z,23.20
2022-08-18T19:07:29.314Z,23.20
2022-08-18T19:10:37.448Z,22.55
2022-08-18T19:13:32.957Z,24.87
2022-08-18T19:16:25.623Z,25.15
2022-08-18T19:19:37.082Z,24.93
2022-08-18T19:22:41.564Z,26.00
2022-08-18T19:25:32.025Z,23.90
2022-08-18T19:28:22.415Z,21.27
2022-08-18T19:31:18.704Z,21.42
2022-08-18T19:34:10.492Z,20.37
2022-08-18T19:37:30.976Z,22.00
2022-08-18T19:40:21.813Z,21.40
2022-08-18T19:43:26.299Z,21.85
2022-08-18T19:46:29.272Z,19.32
2022-08-18T19:49:22.464Z,20.08
2022-08-18T19:52:47.239Z,19.40
2022-08-18T19:55:40.907Z,18.60
2022-08-18T19:58:34.143Z,18.77
2022-08-18T20:01:36.798Z,19.45
2022-08-18T20:04:53.898Z,19.90
2022-08-18T20:07:56.232Z,19.55
2022-08-18T20:11:08.157Z,18.67
2022-08-18T20:13:57.037Z,19.35
2022-08-18T20:16:59.800Z,18.57
2022-08-18T20:20:04.381Z,18.45
2022-08-18T20:22:57.017Z,18.20
2022-08-18T20:25:46.296Z,18.90
2022-08-18T20:28:36.684Z,18.42
2022-08-18T20:31:24.304Z,18.87
2022-08-18T20:34:14.736Z,18.98
2022-08-18T20:37:06.046Z,19.35
2022-08-18T20:39:55.816Z,18.75
2022-08-18T20:42:45.363Z,17.52
2022-08-18T20:45:36.138Z,18.62
2022-08-18T20:48:33.758Z,18.75
2022-08-18T20:51:26.603Z,19.12
2022-08-18T20:54:29.658Z,19.57
2022-08-18T20:57:19.892Z,17.15
2022-08-18T21:00:22.687Z,18.85
2022-08-18T21:03:11.683Z,18.27
2022-08-18T21:06:01.415Z,18.42
2022-08-18T21:08:51.952Z,17.27
2022-08-18T21:11:45.358Z,18.80
2022-08-18T21:14:32.828Z,18.92
2022-08-18T21:17:21.212Z,18.17
2022-08-18T21:20:11.727Z,17.02
2022-08-18T21:23:05.630Z,17.20
2022-08-18T21:25:59.689Z,16.77
2022-08-18T21:28:50.664Z,16.93
2022-08-18T21:31:45.143Z,16.45
2022-08-18T21:34:42.996Z,17.65
2022-08-18T21:37:29.286Z,17.77
2022-08-18T21:40:18.515Z,18.37
2022-08-18T21:43:07.313Z,17.35
2022-08-18T21:45:56.366Z,17.82
2022-08-18T21:48:49.913Z,18.02
2022-08-18T21:51:46.612Z,18.15
2022-08-18T21:54:35.593Z,17.98
2022-08-18T21:57:27.326Z,18.37
2022-08-18T22:00:21.986Z,18.27
2022-08-18T22:03:28.754Z,18.10
2022-08-18T22:06:25.074Z,18.37
2022-08-18T22:09:33.822Z,17.57
2022-08-18T22:12:48.374Z,17.55
2022-08-18T22:15:45.057Z,17.50
2022-08-18T22:18:38.369Z,17.73
2022-08-18T22:21:37.999Z,17.95
2022-08-18T22:24:37.666Z,19.67
2022-08-18T22:27:27.168Z,18.30
2022-08-18T22:30:14.484Z,17.98
2022-08-18T22:33:01.497Z,18.52
2022-08-18T22:35:54.312Z,17.75
2022-08-18T22:38:41.555Z,16.48
2022-08-18T22:41:29.049Z,18.10
2022-08-18T22:44:17.611Z,17.55
2022-08-18T22:47:06.951Z,17.70
2022-08-18T22:49:54.499Z,16.67
2022-08-18T22:52:46.329Z,18.55
2022-08-18T22:55:33.926Z,18.10
2022-08-18T22:58:24.096Z,17.30
2022-08-18T23:01:11.198Z,18.37
2022-08-18T23:03:58.519Z,17.60
2022-08-18T23:06:50.583Z,19.40
2022-08-18T23:09:40.108Z,18.42
2022-08-18T23:12:28.027Z,18.75
2022-08-18T23:15:18.163Z,19.32
2022-08-18T23:18:06.357Z,19.05
2022-08-18T23:20:59.397Z,19.48
2022-08-18T23:23:47.065Z,19.42
2022-08-18T23:26:36.137Z,19.80
2022-08-18T23:29:23.862Z,19.85
2022-08-18T23:32:11.128Z,19.27
2022-08-18T23:34:58.441Z,19.17
2022-08-18T23:37:46.642Z,19.10
2022-08-18T23:40:34.308Z,18.35
2022-08-18T23:43:23.165Z,18.15
2022-08-18T23:46:21.336Z,19.27
2022-08-18T23:49:10.953Z,18.80
2022-08-18T23:51:59.989Z,18.42
2022-08-18T23:54:47.042Z,18.23
2022-08-18T23:57:36.108Z,18.40
